sensor_id;sensor_type;location;lat;lon;timestamp;pressure;altitude;pressure_sealevel;temperature;humidity
57594;BME280;43423;46.510;6.686;2024-01-16T00:01:16;95802.00;;;3.03;58.50
57594;BME280;43423;46.510;6.686;2024-01-16T00:03:45;95801.81;;;2.97;58.58
57594;BME280;43423;46.510;6.686;2024-01-16T00:06:10;95797.28;;;2.94;58.37
57594;BME280;43423;46.510;6.686;2024-01-16T00:08:36;95791.50;;;2.92;58.99
57594;BME280;43423;46.510;6.686;2024-01-16T00:11:02;95790.94;;;2.97;57.63
57594;BME280;43423;46.510;6.686;2024-01-16T00:13:28;95790.94;;;2.97;59.32
57594;BME280;43423;46.510;6.686;2024-01-16T00:15:54;95780.00;;;3.10;58.85
57594;BME280;43423;46.510;6.686;2024-01-16T00:18:22;95785.56;;;3.06;58.37
57594;BME280;43423;46.510;6.686;2024-01-16T00:20:48;95792.88;;;3.19;59.06
57594;BME280;43423;46.510;6.686;2024-01-16T00:23:14;95793.88;;;3.12;59.02
57594;BME280;43423;46.510;6.686;2024-01-16T00:25:39;95795.09;;;3.11;60.18
57594;BME280;43423;46.510;6.686;2024-01-16T00:28:06;95803.66;;;3.00;59.74
57594;BME280;43423;46.510;6.686;2024-01-16T00:30:32;95804.59;;;2.85;59.11
57594;BME280;43423;46.510;6.686;2024-01-16T00:32:59;95806.19;;;2.73;60.30
57594;BME280;43423;46.510;6.686;2024-01-16T00:35:25;95805.41;;;2.50;60.96
57594;BME280;43423;46.510;6.686;2024-01-16T00:37:50;95798.66;;;2.33;61.01
57594;BME280;43423;46.510;6.686;2024-01-16T00:40:16;95796.31;;;2.22;60.68
57594;BME280;43423;46.510;6.686;2024-01-16T00:42:42;95789.16;;;2.16;60.71
57594;BME280;43423;46.510;6.686;2024-01-16T00:45:08;95798.88;;;2.26;62.13
57594;BME280;43423;46.510;6.686;2024-01-16T00:47:34;95796.81;;;2.30;62.69
57594;BME280;43423;46.510;6.686;2024-01-16T00:49:59;95795.56;;;2.44;61.61
57594;BME280;43423;46.510;6.686;2024-01-16T00:52:28;95792.34;;;2.58;62.09
57594;BME280;43423;46.510;6.686;2024-01-16T00:54:54;95805.22;;;2.67;61.00
57594;BME280;43423;46.510;6.686;2024-01-16T00:57:19;95797.72;;;2.71;60.55
57594;BME280;43423;46.510;6.686;2024-01-16T00:59:46;95793.28;;;2.42;61.62
57594;BME280;43423;46.510;6.686;2024-01-16T01:02:12;95800.13;;;2.47;60.79
57594;BME280;43423;46.510;6.686;2024-01-16T01:04:37;95809.19;;;2.31;60.86
57594;BME280;43423;46.510;6.686;2024-01-16T01:07:04;95812.91;;;2.12;60.72
57594;BME280;43423;46.510;6.686;2024-01-16T01:09:32;95804.59;;;2.06;60.79
57594;BME280;43423;46.510;6.686;2024-01-16T01:11:58;95793.84;;;2.03;60.39
57594;BME280;43423;46.510;6.686;2024-01-16T01:14:23;95794.50;;;2.07;61.67
57594;BME280;43423;46.510;6.686;2024-01-16T01:16:51;95801.22;;;2.15;61.99
57594;BME280;43423;46.510;6.686;2024-01-16T01:19:16;95801.22;;;2.15;61.98
57594;BME280;43423;46.510;6.686;2024-01-16T01:21:42;95817.41;;;2.06;61.51
57594;BME280;43423;46.510;6.686;2024-01-16T01:24:11;95808.47;;;2.18;62.21
57594;BME280;43423;46.510;6.686;2024-01-16T01:26:36;95807.72;;;2.05;62.02
57594;BME280;43423;46.510;6.686;2024-01-16T01:29:02;95800.91;;;2.00;63.04
57594;BME280;43423;46.510;6.686;2024-01-16T01:31:28;95803.66;;;1.87;64.03
57594;BME280;43423;46.510;6.686;2024-01-16T01:33:53;95809.28;;;1.80;65.33
57594;BME280;43423;46.510;6.686;2024-01-16T01:36:19;95803.09;;;1.92;64.43
57594;BME280;43423;46.510;6.686;2024-01-16T01:38:44;95805.38;;;1.81;64.90
57594;BME280;43423;46.510;6.686;2024-01-16T01:41:10;95794.09;;;1.95;65.33
57594;BME280;43423;46.510;6.686;2024-01-16T01:43:38;95793.00;;;2.06;65.27
57594;BME280;43423;46.510;6.686;2024-01-16T01:48:34;95803.09;;;2.27;65.41
57594;BME280;43423;46.510;6.686;2024-01-16T01:51:01;95813.97;;;2.27;66.36
57594;BME280;43423;46.510;6.686;2024-01-16T01:53:28;95823.22;;;2.17;65.83
57594;BME280;43423;46.510;6.686;2024-01-16T01:55:56;95821.28;;;2.05;66.28
57594;BME280;43423;46.510;6.686;2024-01-16T01:58:22;95819.69;;;1.94;66.26
57594;BME280;43423;46.510;6.686;2024-01-16T02:00:49;95811.25;;;1.92;67.41
57594;BME280;43423;46.510;6.686;2024-01-16T02:03:14;95811.16;;;1.83;66.18
57594;BME280;43423;46.510;6.686;2024-01-16T02:05:40;95807.66;;;1.95;66.61
57594;BME280;43423;46.510;6.686;2024-01-16T02:08:06;95811.19;;;2.05;66.78
57594;BME280;43423;46.510;6.686;2024-01-16T02:10:32;95806.88;;;1.95;66.26
57594;BME280;43423;46.510;6.686;2024-01-16T02:12:58;95809.53;;;1.73;66.48
57594;BME280;43423;46.510;6.686;2024-01-16T02:15:24;95810.28;;;1.86;67.10
57594;BME280;43423;46.510;6.686;2024-01-16T02:17:49;95805.16;;;2.01;67.32
57594;BME280;43423;46.510;6.686;2024-01-16T02:20:15;95808.69;;;2.11;66.15
57594;BME280;43423;46.510;6.686;2024-01-16T02:22:45;95801.69;;;1.88;66.09
57594;BME280;43423;46.510;6.686;2024-01-16T02:25:13;95789.25;;;1.90;67.21
57594;BME280;43423;46.510;6.686;2024-01-16T02:27:39;95802.31;;;2.05;65.98
57594;BME280;43423;46.510;6.686;2024-01-16T02:30:05;95795.72;;;2.06;65.62
57594;BME280;43423;46.510;6.686;2024-01-16T02:32:31;95787.53;;;1.71;66.66
57594;BME280;43423;46.510;6.686;2024-01-16T02:34:57;95800.88;;;1.53;67.43
57594;BME280;43423;46.510;6.686;2024-01-16T02:37:23;95793.19;;;1.51;67.42
57594;BME280;43423;46.510;6.686;2024-01-16T02:39:49;95802.06;;;1.64;67.83
57594;BME280;43423;46.510;6.686;2024-01-16T02:42:15;95798.81;;;1.57;67.17
57594;BME280;43423;46.510;6.686;2024-01-16T02:44:41;95791.56;;;1.66;67.16
57594;BME280;43423;46.510;6.686;2024-01-16T02:47:06;95793.59;;;1.62;67.43
57594;BME280;43423;46.510;6.686;2024-01-16T02:49:33;95797.06;;;1.76;67.23
57594;BME280;43423;46.510;6.686;2024-01-16T02:51:58;95800.31;;;1.58;66.37
57594;BME280;43423;46.510;6.686;2024-01-16T02:54:24;95795.69;;;1.58;67.79
57594;BME280;43423;46.510;6.686;2024-01-16T02:56:50;95796.44;;;1.59;67.38
57594;BME280;43423;46.510;6.686;2024-01-16T02:59:15;95788.94;;;1.76;66.23
57594;BME280;43423;46.510;6.686;2024-01-16T03:01:42;95796.63;;;1.64;67.09
57594;BME280;43423;46.510;6.686;2024-01-16T03:04:08;95790.16;;;1.62;66.41
57594;BME280;43423;46.510;6.686;2024-01-16T03:06:34;95789.47;;;1.71;66.46
57594;BME280;43423;46.510;6.686;2024-01-16T03:09:00;95799.75;;;1.88;65.71
57594;BME280;43423;46.510;6.686;2024-01-16T03:11:25;95797.69;;;1.92;65.77
57594;BME280;43423;46.510;6.686;2024-01-16T03:13:51;95798.34;;;1.84;65.26
57594;BME280;43423;46.510;6.686;2024-01-16T03:16:18;95797.06;;;1.76;66.75
57594;BME280;43423;46.510;6.686;2024-01-16T03:18:44;95787.97;;;1.82;64.79
57594;BME280;43423;46.510;6.686;2024-01-16T03:21:10;95793.78;;;1.93;65.56
57594;BME280;43423;46.510;6.686;2024-01-16T03:23:36;95787.66;;;2.15;65.30
57594;BME280;43423;46.510;6.686;2024-01-16T03:26:02;95784.75;;;1.96;64.46
57594;BME280;43423;46.510;6.686;2024-01-16T03:28:29;95785.50;;;2.10;64.60
57594;BME280;43423;46.510;6.686;2024-01-16T03:30:54;95794.50;;;2.07;64.32
57594;BME280;43423;46.510;6.686;2024-01-16T03:33:20;95785.94;;;2.08;65.41
57594;BME280;43423;46.510;6.686;2024-01-16T03:35:46;95792.94;;;2.18;66.21
57594;BME280;43423;46.510;6.686;2024-01-16T03:38:13;95794.38;;;2.10;65.86
57594;BME280;43423;46.510;6.686;2024-01-16T03:40:38;95784.75;;;1.96;65.04
57594;BME280;43423;46.510;6.686;2024-01-16T03:43:04;95792.41;;;2.11;65.51
57594;BME280;43423;46.510;6.686;2024-01-16T03:45:33;95778.56;;;1.96;66.46
57594;BME280;43423;46.510;6.686;2024-01-16T03:47:58;95780.53;;;1.95;65.23
57594;BME280;43423;46.510;6.686;2024-01-16T03:50:24;95785.94;;;2.08;64.99
57594;BME280;43423;46.510;6.686;2024-01-16T03:52:50;95780.94;;;2.07;65.29
57594;BME280;43423;46.510;6.686;2024-01-16T03:55:15;95786.13;;;2.14;65.50
57594;BME280;43423;46.510;6.686;2024-01-16T03:57:41;95790.97;;;1.84;65.98
57594;BME280;43423;46.510;6.686;2024-01-16T04:00:07;95785.00;;;1.89;66.41
57594;BME280;43423;46.510;6.686;2024-01-16T04:02:37;95782.03;;;1.96;66.66
57594;BME280;43423;46.510;6.686;2024-01-16T04:05:03;95771.13;;;1.87;66.19
57594;BME280;43423;46.510;6.686;2024-01-16T04:07:29;95773.66;;;1.82;65.95
57594;BME280;43423;46.510;6.686;2024-01-16T04:09:54;95772.00;;;1.84;66.63
57594;BME280;43423;46.510;6.686;2024-01-16T04:12:19;95772.59;;;2.01;66.26
57594;BME280;43423;46.510;6.686;2024-01-16T04:14:45;95760.69;;;1.99;66.82
57594;BME280;43423;46.510;6.686;2024-01-16T04:17:11;95759.19;;;1.98;65.64
57594;BME280;43423;46.510;6.686;2024-01-16T04:19:37;95762.06;;;2.03;65.98
57594;BME280;43423;46.510;6.686;2024-01-16T04:22:02;95758.00;;;1.86;65.47
57594;BME280;43423;46.510;6.686;2024-01-16T04:24:30;95759.50;;;2.00;66.76
57594;BME280;43423;46.510;6.686;2024-01-16T04:26:56;95760.09;;;2.16;65.97
57594;BME280;43423;46.510;6.686;2024-01-16T04:29:22;95761.28;;;2.15;65.63
57594;BME280;43423;46.510;6.686;2024-01-16T04:31:48;95746.72;;;2.22;65.05
57594;BME280;43423;46.510;6.686;2024-01-16T04:34:14;95736.97;;;2.46;64.64
57594;BME280;43423;46.510;6.686;2024-01-16T04:36:39;95742.56;;;2.30;65.10
57594;BME280;43423;46.510;6.686;2024-01-16T04:39:05;95743.38;;;2.40;64.44
57594;BME280;43423;46.510;6.686;2024-01-16T04:41:30;95751.97;;;2.04;63.63
57594;BME280;43423;46.510;6.686;2024-01-16T04:43:56;95744.56;;;2.17;64.80
57594;BME280;43423;46.510;6.686;2024-01-16T04:46:22;95752.63;;;2.08;64.63
57594;BME280;43423;46.510;6.686;2024-01-16T04:48:47;95738.78;;;1.93;65.72
57594;BME280;43423;46.510;6.686;2024-01-16T04:51:13;95756.13;;;1.95;65.36
57594;BME280;43423;46.510;6.686;2024-01-16T04:53:39;95754.47;;;2.11;66.23
57594;BME280;43423;46.510;6.686;2024-01-16T04:56:05;95746.00;;;2.09;64.52
57594;BME280;43423;46.510;6.686;2024-01-16T04:58:31;95745.94;;;2.00;66.38
57594;BME280;43423;46.510;6.686;2024-01-16T05:00:57;95742.22;;;1.72;65.89
57594;BME280;43423;46.510;6.686;2024-01-16T05:03:23;95738.28;;;1.85;66.47
57594;BME280;43423;46.510;6.686;2024-01-16T05:05:48;95737.72;;;1.90;66.83
57594;BME280;43423;46.510;6.686;2024-01-16T05:08:14;95740.50;;;2.00;66.00
57594;BME280;43423;46.510;6.686;2024-01-16T05:10:39;95739.53;;;2.06;67.24
57594;BME280;43423;46.510;6.686;2024-01-16T05:13:05;95739.06;;;2.08;65.68
57594;BME280;43423;46.510;6.686;2024-01-16T05:15:30;95751.13;;;2.07;67.28
57594;BME280;43423;46.510;6.686;2024-01-16T05:17:56;95737.72;;;1.90;67.15
57594;BME280;43423;46.510;6.686;2024-01-16T05:20:22;95734.44;;;1.95;67.60
57594;BME280;43423;46.510;6.686;2024-01-16T05:22:48;95732.44;;;2.09;67.23
57594;BME280;43423;46.510;6.686;2024-01-16T05:25:13;95733.66;;;2.08;66.95
57594;BME280;43423;46.510;6.686;2024-01-16T05:27:39;95725.00;;;2.00;67.29
57594;BME280;43423;46.510;6.686;2024-01-16T05:30:05;95705.56;;;2.02;67.51
57594;BME280;43423;46.510;6.686;2024-01-16T05:32:32;95722.91;;;2.04;67.78
57594;BME280;43423;46.510;6.686;2024-01-16T05:34:57;95719.13;;;2.02;67.93
57594;BME280;43423;46.510;6.686;2024-01-16T05:37:23;95721.41;;;2.03;67.28
57594;BME280;43423;46.510;6.686;2024-01-16T05:39:49;95723.63;;;2.17;67.42
57594;BME280;43423;46.510;6.686;2024-01-16T05:42:14;95702.69;;;2.18;68.48
57594;BME280;43423;46.510;6.686;2024-01-16T05:44:41;95713.03;;;2.32;68.24
57594;BME280;43423;46.510;6.686;2024-01-16T05:47:06;95700.88;;;2.15;67.66
57594;BME280;43423;46.510;6.686;2024-01-16T05:49:32;95703.84;;;2.30;67.90
57594;BME280;43423;46.510;6.686;2024-01-16T05:51:58;95693.78;;;2.39;67.34
57594;BME280;43423;46.510;6.686;2024-01-16T05:54:23;95694.34;;;2.34;66.83
57594;BME280;43423;46.510;6.686;2024-01-16T05:56:49;95690.84;;;2.24;67.16
57594;BME280;43423;46.510;6.686;2024-01-16T05:59:16;95696.88;;;2.07;68.49
57594;BME280;43423;46.510;6.686;2024-01-16T06:01:41;95695.44;;;2.15;69.26
57594;BME280;43423;46.510;6.686;2024-01-16T06:04:07;95690.06;;;2.24;68.78
57594;BME280;43423;46.510;6.686;2024-01-16T06:06:33;95700.94;;;2.24;69.13
57594;BME280;43423;46.510;6.686;2024-01-16T06:08:58;95689.53;;;2.29;69.42
57594;BME280;43423;46.510;6.686;2024-01-16T06:11:32;95701.53;;;2.28;69.53
57594;BME280;43423;46.510;6.686;2024-01-16T06:13:58;95697.13;;;2.43;69.30
57594;BME280;43423;46.510;6.686;2024-01-16T06:16:25;95705.25;;;2.43;68.82
57594;BME280;43423;46.510;6.686;2024-01-16T06:18:50;95703.25;;;2.35;69.28
57594;BME280;43423;46.510;6.686;2024-01-16T06:21:16;95708.72;;;2.44;69.07
57594;BME280;43423;46.510;6.686;2024-01-16T06:23:43;95695.66;;;2.51;68.54
57594;BME280;43423;46.510;6.686;2024-01-16T06:26:09;95696.06;;;2.41;69.03
57594;BME280;43423;46.510;6.686;2024-01-16T06:28:35;95693.91;;;2.58;69.48
57594;BME280;43423;46.510;6.686;2024-01-16T06:31:00;95695.75;;;2.39;68.73
57594;BME280;43423;46.510;6.686;2024-01-16T06:33:26;95696.50;;;2.39;69.52
57594;BME280;43423;46.510;6.686;2024-01-16T06:35:54;95698.31;;;2.42;69.15
57594;BME280;43423;46.510;6.686;2024-01-16T06:38:20;95696.09;;;2.50;69.70
57594;BME280;43423;46.510;6.686;2024-01-16T06:40:45;95690.38;;;2.48;69.32
57594;BME280;43423;46.510;6.686;2024-01-16T06:43:11;95693.44;;;2.59;69.19
57594;BME280;43423;46.510;6.686;2024-01-16T06:45:40;95689.66;;;2.57;70.28
57594;BME280;43423;46.510;6.686;2024-01-16T06:48:05;95698.00;;;2.18;70.87
57594;BME280;43423;46.510;6.686;2024-01-16T06:50:31;95691.94;;;1.92;72.38
57594;BME280;43423;46.510;6.686;2024-01-16T06:52:57;95701.28;;;1.91;73.35
57594;BME280;43423;46.510;6.686;2024-01-16T06:55:22;95685.03;;;1.91;72.22
57594;BME280;43423;46.510;6.686;2024-01-16T06:57:48;95695.63;;;1.99;72.05
57594;BME280;43423;46.510;6.686;2024-01-16T07:00:14;95692.72;;;1.93;72.70
57594;BME280;43423;46.510;6.686;2024-01-16T07:02:40;95691.28;;;2.23;71.41
57594;BME280;43423;46.510;6.686;2024-01-16T07:05:09;95700.38;;;2.29;71.60
57594;BME280;43423;46.510;6.686;2024-01-16T07:07:35;95703.94;;;2.26;71.19
57594;BME280;43423;46.510;6.686;2024-01-16T07:10:00;95712.22;;;2.22;70.94
57594;BME280;43423;46.510;6.686;2024-01-16T07:12:26;95704.91;;;2.32;71.19
57594;BME280;43423;46.510;6.686;2024-01-16T07:14:52;95720.63;;;2.37;71.56
57594;BME280;43423;46.510;6.686;2024-01-16T07:17:17;95714.16;;;2.44;71.16
57594;BME280;43423;46.510;6.686;2024-01-16T07:19:43;95717.81;;;2.50;70.62
57594;BME280;43423;46.510;6.686;2024-01-16T07:22:08;95712.13;;;2.57;70.10
57594;BME280;43423;46.510;6.686;2024-01-16T07:24:35;95717.75;;;2.63;70.58
57594;BME280;43423;46.510;6.686;2024-01-16T07:27:00;95718.47;;;2.54;71.05
57594;BME280;43423;46.510;6.686;2024-01-16T07:29:26;95722.69;;;2.55;71.66
57594;BME280;43423;46.510;6.686;2024-01-16T07:31:51;95703.50;;;2.49;70.78
57594;BME280;43423;46.510;6.686;2024-01-16T07:34:18;95711.78;;;2.46;71.42
57594;BME280;43423;46.510;6.686;2024-01-16T07:36:47;95715.75;;;2.54;71.83
57594;BME280;43423;46.510;6.686;2024-01-16T07:39:13;95717.56;;;2.57;71.55
57594;BME280;43423;46.510;6.686;2024-01-16T07:41:40;95706.94;;;2.72;70.80
57594;BME280;43423;46.510;6.686;2024-01-16T07:44:05;95720.06;;;2.73;71.71
57594;BME280;43423;46.510;6.686;2024-01-16T07:46:31;95721.47;;;2.78;71.83
57594;BME280;43423;46.510;6.686;2024-01-16T07:48:57;95713.31;;;2.78;71.71
57594;BME280;43423;46.510;6.686;2024-01-16T07:51:22;95728.75;;;2.90;71.24
57594;BME280;43423;46.510;6.686;2024-01-16T07:53:51;95727.81;;;2.84;71.03
57594;BME280;43423;46.510;6.686;2024-01-16T07:56:17;95727.88;;;2.93;72.07
57594;BME280;43423;46.510;6.686;2024-01-16T07:58:43;95727.53;;;2.91;71.04
57594;BME280;43423;46.510;6.686;2024-01-16T08:01:08;95726.56;;;2.76;70.84
57594;BME280;43423;46.510;6.686;2024-01-16T08:03:34;95724.56;;;2.98;71.12
57594;BME280;43423;46.510;6.686;2024-01-16T08:05:59;95734.19;;;2.90;71.37
57594;BME280;43423;46.510;6.686;2024-01-16T08:08:25;95738.31;;;3.04;71.29
57594;BME280;43423;46.510;6.686;2024-01-16T08:10:51;95743.38;;;3.24;69.75
57594;BME280;43423;46.510;6.686;2024-01-16T08:13:16;95746.06;;;3.15;70.21
57594;BME280;43423;46.510;6.686;2024-01-16T08:15:42;95743.25;;;2.96;71.41
57594;BME280;43423;46.510;6.686;2024-01-16T08:18:08;95741.00;;;2.95;71.15
57594;BME280;43423;46.510;6.686;2024-01-16T08:20:33;95744.47;;;2.95;71.93
57594;BME280;43423;46.510;6.686;2024-01-16T08:22:59;95748.84;;;2.93;71.82
57594;BME280;43423;46.510;6.686;2024-01-16T08:25:24;95749.22;;;2.82;71.23
57594;BME280;43423;46.510;6.686;2024-01-16T08:27:50;95747.91;;;2.65;71.98
57594;BME280;43423;46.510;6.686;2024-01-16T08:30:16;95748.41;;;2.72;72.25
57594;BME280;43423;46.510;6.686;2024-01-16T08:32:41;95756.41;;;2.76;73.23
57594;BME280;43423;46.510;6.686;2024-01-16T08:35:07;95758.53;;;2.72;73.64
57594;BME280;43423;46.510;6.686;2024-01-16T08:37:34;95755.81;;;2.72;74.48
57594;BME280;43423;46.510;6.686;2024-01-16T08:39:59;95747.66;;;2.72;73.91
57594;BME280;43423;46.510;6.686;2024-01-16T08:42:25;95757.00;;;2.71;74.12
57594;BME280;43423;46.510;6.686;2024-01-16T08:44:51;95753.13;;;2.81;74.01
57594;BME280;43423;46.510;6.686;2024-01-16T08:47:17;95754.53;;;2.86;75.00
57594;BME280;43423;46.510;6.686;2024-01-16T08:49:43;95747.44;;;2.88;74.71
57594;BME280;43423;46.510;6.686;2024-01-16T08:52:09;95748.59;;;2.78;76.62
57594;BME280;43423;46.510;6.686;2024-01-16T08:54:35;95735.25;;;2.93;76.05
57594;BME280;43423;46.510;6.686;2024-01-16T08:57:01;95733.03;;;3.00;75.26
57594;BME280;43423;46.510;6.686;2024-01-16T08:59:26;95736.19;;;2.99;75.65
57594;BME280;43423;46.510;6.686;2024-01-16T09:01:53;95745.34;;;2.92;75.75
57594;BME280;43423;46.510;6.686;2024-01-16T09:04:19;95747.59;;;2.85;75.77
57594;BME280;43423;46.510;6.686;2024-01-16T09:06:45;95744.44;;;2.86;76.46
57594;BME280;43423;46.510;6.686;2024-01-16T09:09:11;95738.72;;;2.93;76.81
57594;BME280;43423;46.510;6.686;2024-01-16T09:11:38;95736.44;;;2.92;76.56
57594;BME280;43423;46.510;6.686;2024-01-16T09:14:03;95741.75;;;2.95;75.70
57594;BME280;43423;46.510;6.686;2024-01-16T09:16:29;95744.16;;;2.93;76.27
57594;BME280;43423;46.510;6.686;2024-01-16T09:18:54;95753.09;;;3.03;76.52
57594;BME280;43423;46.510;6.686;2024-01-16T09:21:20;95751.44;;;3.05;76.10
57594;BME280;43423;46.510;6.686;2024-01-16T09:23:46;95753.59;;;3.11;76.14
57594;BME280;43423;46.510;6.686;2024-01-16T09:26:12;95755.09;;;3.12;76.81
57594;BME280;43423;46.510;6.686;2024-01-16T09:28:37;95752.56;;;3.17;78.43
57594;BME280;43423;46.510;6.686;2024-01-16T09:31:03;95734.59;;;3.11;78.19
57594;BME280;43423;46.510;6.686;2024-01-16T09:33:30;95738.53;;;3.19;77.97
57594;BME280;43423;46.510;6.686;2024-01-16T09:35:56;95746.38;;;3.17;78.11
57594;BME280;43423;46.510;6.686;2024-01-16T09:38:22;95754.81;;;3.10;77.84
57594;BME280;43423;46.510;6.686;2024-01-16T09:40:48;95747.78;;;2.99;76.75
57594;BME280;43423;46.510;6.686;2024-01-16T09:43:13;95750.28;;;3.16;75.14
57594;BME280;43423;46.510;6.686;2024-01-16T09:45:40;95760.81;;;3.04;73.01
57594;BME280;43423;46.510;6.686;2024-01-16T09:48:07;95757.66;;;2.84;72.36
57594;BME280;43423;46.510;6.686;2024-01-16T09:50:33;95769.81;;;2.70;73.35
57594;BME280;43423;46.510;6.686;2024-01-16T09:52:59;95766.03;;;2.99;72.96
57594;BME280;43423;46.510;6.686;2024-01-16T09:55:25;95768.19;;;3.35;70.83
57594;BME280;43423;46.510;6.686;2024-01-16T09:57:52;95771.56;;;3.48;70.84
57594;BME280;43423;46.510;6.686;2024-01-16T10:00:21;95765.13;;;3.64;69.27
57594;BME280;43423;46.510;6.686;2024-01-16T10:02:50;95772.22;;;3.71;69.57
57594;BME280;43423;46.510;6.686;2024-01-16T10:05:16;95763.41;;;3.48;70.87
57594;BME280;43423;46.510;6.686;2024-01-16T10:07:42;95759.31;;;3.53;73.25
57594;BME280;43423;46.510;6.686;2024-01-16T10:10:11;95759.34;;;3.62;72.70
57594;BME280;43423;46.510;6.686;2024-01-16T10:12:38;95748.97;;;3.79;70.91
57594;BME280;43423;46.510;6.686;2024-01-16T10:15:07;95740.22;;;3.93;72.71
57594;BME280;43423;46.510;6.686;2024-01-16T10:17:43;95746.59;;;4.08;71.69
57594;BME280;43423;46.510;6.686;2024-01-16T10:20:10;95755.66;;;4.14;69.31
57594;BME280;43423;46.510;6.686;2024-01-16T10:22:39;95763.19;;;4.01;70.04
57594;BME280;43423;46.510;6.686;2024-01-16T10:27:33;95756.59;;;4.20;70.42
57594;BME280;43423;46.510;6.686;2024-01-16T10:29:59;95742.94;;;4.48;67.88
57594;BME280;43423;46.510;6.686;2024-01-16T10:32:34;95738.03;;;4.89;66.34
57594;BME280;43423;46.510;6.686;2024-01-16T10:35:22;95749.34;;;6.05;63.64
57594;BME280;43423;46.510;6.686;2024-01-16T10:37:51;95757.03;;;6.30;60.05
57594;BME280;43423;46.510;6.686;2024-01-16T10:40:18;95760.34;;;5.86;62.61
57594;BME280;43423;46.510;6.686;2024-01-16T10:42:45;95751.28;;;5.80;62.77
57594;BME280;43423;46.510;6.686;2024-01-16T10:45:18;95746.97;;;5.98;63.39
57594;BME280;43423;46.510;6.686;2024-01-16T10:47:45;95736.28;;;6.09;62.37
57594;BME280;43423;46.510;6.686;2024-01-16T10:50:11;95730.41;;;6.25;63.01
57594;BME280;43423;46.510;6.686;2024-01-16T10:52:46;95724.81;;;6.20;61.00
57594;BME280;43423;46.510;6.686;2024-01-16T10:55:21;95734.38;;;6.39;60.47
57594;BME280;43423;46.510;6.686;2024-01-16T10:57:48;95725.28;;;6.57;60.19
57594;BME280;43423;46.510;6.686;2024-01-16T11:00:18;95732.72;;;6.71;60.74
57594;BME280;43423;46.510;6.686;2024-01-16T11:02:49;95727.41;;;6.38;60.99
57594;BME280;43423;46.510;6.686;2024-01-16T11:05:20;95729.69;;;6.01;60.74
57594;BME280;43423;46.510;6.686;2024-01-16T11:07:46;95730.22;;;5.81;62.17
57594;BME280;43423;46.510;6.686;2024-01-16T11:10:12;95726.28;;;5.82;61.59
57594;BME280;43423;46.510;6.686;2024-01-16T11:12:38;95731.47;;;6.04;60.85
57594;BME280;43423;46.510;6.686;2024-01-16T11:15:08;95714.84;;;6.17;60.09
57594;BME280;43423;46.510;6.686;2024-01-16T11:17:38;95727.63;;;6.93;59.20
57594;BME280;43423;46.510;6.686;2024-01-16T11:20:08;95732.88;;;7.26;58.43
57594;BME280;43423;46.510;6.686;2024-01-16T11:22:39;95730.19;;;7.12;57.25
57594;BME280;43423;46.510;6.686;2024-01-16T11:27:40;95724.50;;;7.65;55.17
57594;BME280;43423;46.510;6.686;2024-01-16T11:30:07;95727.25;;;7.86;53.70
57594;BME280;43423;46.510;6.686;2024-01-16T11:32:38;95719.31;;;7.03;55.35
57594;BME280;43423;46.510;6.686;2024-01-16T11:35:09;95726.66;;;7.26;55.16
57594;BME280;43423;46.510;6.686;2024-01-16T11:37:36;95728.22;;;8.03;53.28
57594;BME280;43423;46.510;6.686;2024-01-16T11:42:48;95724.19;;;7.43;53.13
57594;BME280;43423;46.510;6.686;2024-01-16T11:48:11;95702.38;;;7.48;54.09
57594;BME280;43423;46.510;6.686;2024-01-16T11:50:37;95716.59;;;8.08;52.17
57594;BME280;43423;46.510;6.686;2024-01-16T11:53:03;95695.63;;;8.72;50.33
57594;BME280;43423;46.510;6.686;2024-01-16T11:55:34;95712.56;;;8.96;51.09
57594;BME280;43423;46.510;6.686;2024-01-16T11:58:25;95692.66;;;9.38;48.61
57594;BME280;43423;46.510;6.686;2024-01-16T12:00:55;95681.53;;;9.53;48.63
57594;BME280;43423;46.510;6.686;2024-01-16T12:03:22;95665.25;;;9.07;49.09
57594;BME280;43423;46.510;6.686;2024-01-16T12:05:56;95651.63;;;8.81;51.93
57594;BME280;43423;46.510;6.686;2024-01-16T12:08:22;95667.22;;;8.23;50.55
57594;BME280;43423;46.510;6.686;2024-01-16T12:10:48;95660.41;;;7.72;52.99
57594;BME280;43423;46.510;6.686;2024-01-16T12:13:14;95649.31;;;7.81;52.60
57594;BME280;43423;46.510;6.686;2024-01-16T12:15:40;95642.34;;;7.80;53.06
57594;BME280;43423;46.510;6.686;2024-01-16T12:18:07;95633.59;;;7.55;53.05
57594;BME280;43423;46.510;6.686;2024-01-16T12:20:35;95628.25;;;7.87;52.26
57594;BME280;43423;46.510;6.686;2024-01-16T12:23:03;95625.53;;;7.46;54.86
57594;BME280;43423;46.510;6.686;2024-01-16T12:25:31;95631.00;;;7.46;54.99
57594;BME280;43423;46.510;6.686;2024-01-16T12:28:01;95614.28;;;6.89;56.22
57594;BME280;43423;46.510;6.686;2024-01-16T12:30:30;95607.16;;;7.12;55.35
57594;BME280;43423;46.510;6.686;2024-01-16T12:33:05;95608.22;;;6.99;55.96
57594;BME280;43423;46.510;6.686;2024-01-16T12:35:35;95607.03;;;6.71;56.14
57594;BME280;43423;46.510;6.686;2024-01-16T12:38:01;95610.09;;;6.43;57.34
57594;BME280;43423;46.510;6.686;2024-01-16T12:40:28;95593.88;;;6.55;57.43
57594;BME280;43423;46.510;6.686;2024-01-16T12:42:54;95601.53;;;7.00;56.79
57594;BME280;43423;46.510;6.686;2024-01-16T12:45:20;95587.22;;;7.67;55.11
57594;BME280;43423;46.510;6.686;2024-01-16T12:47:51;95588.56;;;6.95;56.40
57594;BME280;43423;46.510;6.686;2024-01-16T12:50:21;95587.09;;;7.00;55.90
57594;BME280;43423;46.510;6.686;2024-01-16T12:52:49;95583.94;;;7.22;55.38
57594;BME280;43423;46.510;6.686;2024-01-16T12:55:15;95582.38;;;8.28;53.73
57594;BME280;43423;46.510;6.686;2024-01-16T12:57:41;95593.88;;;8.58;52.92
57594;BME280;43423;46.510;6.686;2024-01-16T13:00:23;95578.50;;;9.52;51.25
57594;BME280;43423;46.510;6.686;2024-01-16T13:02:50;95576.91;;;9.99;49.88
57594;BME280;43423;46.510;6.686;2024-01-16T13:05:17;95572.25;;;10.22;47.86
57594;BME280;43423;46.510;6.686;2024-01-16T13:07:43;95563.41;;;9.85;48.60
57594;BME280;43423;46.510;6.686;2024-01-16T13:10:10;95553.88;;;9.09;50.27
57594;BME280;43423;46.510;6.686;2024-01-16T13:12:43;95557.88;;;8.45;51.21
57594;BME280;43423;46.510;6.686;2024-01-16T13:15:09;95548.34;;;8.35;52.45
57594;BME280;43423;46.510;6.686;2024-01-16T13:17:36;95537.25;;;7.92;54.02
57594;BME280;43423;46.510;6.686;2024-01-16T13:20:02;95526.22;;;8.12;53.08